Sunday, December 17, 2017, 2:42 PM EST
Back to Local

KBID, Block Island, Block Island State Airport

Location: Block Island, RI, United States Lat: 41.167
Local Time: 2:42 PM EST (19:42 GMT) Lon: -71.567
Time Zone: US/Eastern Elev: 108 ft

Show me the last for .
Show Decoded

2017-12-17 13:56 METAR KBID 171856Z AUTO 31007KT 10SM OVC070 00/M12 A3023 RMK AO2 SLP242
                 T00001117 FZRANO =
2017-12-17 12:56 METAR KBID 171756Z AUTO 28007KT 10SM CLR 00/M12 A3025 RMK AO2 SLP249 T00001122
                 10000 21033 55012 FZRANO =
2017-12-17 11:56 METAR KBID 171656Z AUTO 32009KT 280V340 10SM CLR M01/M12 A3025 RMK AO2 SLP248
                 T10061122 FZRANO =
2017-12-17 10:56 METAR KBID 171556Z AUTO 32010KT 10SM CLR M01/M11 A3028 RMK AO2 SLP258 T10111106
                 FZRANO =
2017-12-17 09:56 METAR KBID 171456Z AUTO 33009G15KT 10SM CLR M02/M10 A3029 RMK AO2 SLP261
                 T10171100 53009 FZRANO =
2017-12-17 08:56 METAR KBID 171356Z AUTO 34011G17KT 10SM CLR M03/M11 A3027 RMK AO2 SLP254
                 T10281106 FZRANO =
2017-12-17 07:56 METAR KBID 171256Z AUTO 33009G17KT 10SM CLR M03/M11 A3027 RMK AO2 SLP255
                 T10281106 FZRANO =
2017-12-17 06:56 METAR KBID 171156Z AUTO 33011G18KT 10SM CLR M03/M11 A3026 RMK AO2 SLP252 7////
                 T10331106 11022 21033 51011 FZRANO =
2017-12-17 05:56 METAR KBID 171056Z AUTO 33014G20KT 10SM CLR M03/M09 A3026 RMK AO2 SLP252
                 T10281094 FZRANO =
2017-12-17 04:56 METAR KBID 170956Z AUTO 33012G20KT 10SM CLR M03/M12 A3026 RMK AO2 SLP250
                 T10281117 FZRANO =
2017-12-17 03:56 METAR KBID 170856Z AUTO 33013G19KT 10SM CLR M03/M12 A3023 RMK AO2 SLP241
                 T10281117 51013 FZRANO =
2017-12-17 02:56 METAR KBID 170756Z AUTO 33012G17KT 10SM CLR M03/M13 A3023 RMK AO2 SLP240
                 T10281128 FZRANO TSNO =
2017-12-17 01:56 METAR KBID 170656Z AUTO 32013G20KT 10SM CLR M02/M11 A3022 RMK AO2 SLP237
                 T10221111 FZRANO =
2017-12-17 00:56 METAR KBID 170556Z AUTO 32013G19KT 10SM CLR M02/M11 A3019 RMK AO2 SLP229
                 T10221106 10017 21022 51015 FZRANO =
2017-12-16 23:56 METAR KBID 170456Z AUTO 33013G20KT 10SM CLR M02/M11 A3019 RMK AO2 SLP228
                 T10171106 FZRANO =
2017-12-16 22:56 METAR KBID 170356Z AUTO 34012G17KT 10SM CLR M02/M08 A3018 RMK AO2 SLP224
                 T10171078 400281039 FZRANO =
2017-12-16 21:56 METAR KBID 170256Z AUTO 33013G18KT 10SM CLR M01/M07 A3015 RMK AO2 SLP214
                 T10061072 51026 FZRANO =
2017-12-16 20:56 METAR KBID 170156Z AUTO 33012G19KT 10SM FEW085 00/M07 A3013 RMK AO2 SLP208
                 T00001067 FZRANO =
2017-12-16 19:56 METAR KBID 170056Z AUTO 34010G16KT 10SM FEW023 SCT033 BKN075 00/M04 A3011 RMK
                 AO2 SLP199 T00001044 FZRANO =
2017-12-16 18:56 METAR KBID 162356Z AUTO 30011G23KT 270V340 10SM BKN036 OVC049 02/M06 A3008 RMK
                 AO2 PK WND 30028/2332 SLP188 6//// T00171056 10028 20017 53037 FZRANO =
2017-12-16 17:56 METAR KBID 162256Z AUTO 29020G26KT 10SM SCT035 BKN045 OVC100 02/M04 A3002 RMK
                 AO2 PK WND 28027/2244 SLP170 T00221044 FZRANO =
2017-12-16 16:56 METAR KBID 162156Z AUTO 28014G26KT 10SM SCT035 BKN048 BKN075 02/M04 A2999 RMK
                 AO2 PK WND 29026/2154 SLP159 T00221044 FZRANO =
2017-12-16 15:56 METAR KBID 162056Z AUTO 27012G20KT 10SM BKN036 BKN043 02/M04 A2997 RMK AO2 PK
                 WND 26026/2028 SLP151 60002 T00221044 53007 FZRANO =
2017-12-16 14:56 METAR KBID 161956Z AUTO 27020G27KT 10SM BKN034 OVC041 02/M05 A2995 RMK AO2 PK
                 WND 28027/1951 SLP146 P0001 T00221050 FZRANO =

Support USWX by starting your Amazon purchase here.